createdAt,value
2022-11-23T00:02:14.763Z,9.80
2022-11-23T00:05:00.207Z,9.80
2022-11-23T00:07:46.119Z,9.90
2022-11-23T00:10:31.564Z,9.80
2022-11-23T00:13:17.187Z,9.90
2022-11-23T00:16:09.753Z,10.00
2022-11-23T00:18:57.995Z,9.90
2022-11-23T00:21:43.826Z,9.90
2022-11-23T00:24:29.612Z,9.80
2022-11-23T00:27:15.188Z,9.80
2022-11-23T00:30:00.662Z,9.90
2022-11-23T00:32:46.232Z,9.80
2022-11-23T00:35:32.252Z,9.80
2022-11-23T00:38:19.951Z,9.70
2022-11-23T00:41:08.102Z,9.70
2022-11-23T00:43:54.193Z,9.60
2022-11-23T00:46:40.039Z,9.50
2022-11-23T00:49:25.626Z,9.60
2022-11-23T00:52:12.795Z,9.40
2022-11-23T00:54:58.258Z,9.00
2022-11-23T00:57:44.481Z,8.60
2022-11-23T01:00:30.353Z,8.20
2022-11-23T01:03:17.135Z,8.10
2022-11-23T01:06:08.644Z,8.40
2022-11-23T01:08:57.692Z,9.10
2022-11-23T01:11:43.439Z,8.90
2022-11-23T01:14:29.238Z,8.80
2022-11-23T01:17:14.631Z,9.00
2022-11-23T01:20:00.513Z,9.10
2022-11-23T01:22:46.175Z,9.20
2022-11-23T01:25:31.911Z,9.20
2022-11-23T01:28:17.546Z,9.00
2022-11-23T01:31:06.809Z,9.00
2022-11-23T01:33:58.706Z,8.70
2022-11-23T01:36:45.545Z,9.30
2022-11-23T01:39:31.236Z,8.70
2022-11-23T01:42:18.281Z,8.70
2022-11-23T01:45:42.679Z,8.60
2022-11-23T01:48:39.399Z,8.50
2022-11-23T01:51:29.660Z,8.30
2022-11-23T01:54:32.522Z,8.40
2022-11-23T01:57:28.033Z,8.60
2022-11-23T02:00:14.095Z,8.50
2022-11-23T02:03:01.189Z,8.60
2022-11-23T02:05:54.059Z,8.60
2022-11-23T02:08:39.970Z,8.30
2022-11-23T02:11:26.709Z,8.30
2022-11-23T02:14:12.994Z,7.70
2022-11-23T02:16:59.372Z,7.70
2022-11-23T02:20:03.328Z,8.10
2022-11-23T02:23:03.998Z,7.60
2022-11-23T02:26:14.393Z,7.80
2022-11-23T02:29:10.739Z,8.20
2022-11-23T02:31:56.584Z,8.40
2022-11-23T02:34:43.452Z,8.50
2022-11-23T02:37:29.240Z,8.60
2022-11-23T02:40:28.337Z,8.50
2022-11-23T02:43:13.994Z,8.50
2022-11-23T02:46:04.364Z,8.30
2022-11-23T02:48:50.097Z,8.20
2022-11-23T02:51:35.831Z,8.30
2022-11-23T02:54:21.924Z,8.10
2022-11-23T02:57:08.238Z,8.20
2022-11-23T02:59:53.653Z,8.30
2022-11-23T03:02:39.440Z,8.30
2022-11-23T03:05:24.948Z,8.40
2022-11-23T03:08:10.487Z,8.30
2022-11-23T03:10:57.499Z,8.10
2022-11-23T03:13:43.840Z,8.00
2022-11-23T03:16:29.522Z,7.90
2022-11-23T03:19:15.228Z,7.80
2022-11-23T03:22:01.068Z,7.80
2022-11-23T03:24:49.961Z,7.80
2022-11-23T03:27:35.835Z,7.80
2022-11-23T03:30:22.325Z,7.70
2022-11-23T03:33:08.516Z,7.70
2022-11-23T03:35:54.999Z,7.60
2022-11-23T03:38:54.587Z,7.60
2022-11-23T03:41:52.242Z,7.70
2022-11-23T03:44:40.826Z,7.60
2022-11-23T03:47:26.437Z,7.50
2022-11-23T03:50:12.334Z,7.60
2022-11-23T03:52:59.713Z,7.70
2022-11-23T03:55:47.261Z,7.60
2022-11-23T03:58:33.518Z,7.50
2022-11-23T04:01:22.801Z,7.50
2022-11-23T04:04:16.007Z,7.40
2022-11-23T04:07:24.759Z,7.30
2022-11-23T04:10:15.648Z,7.30
2022-11-23T04:13:19.433Z,7.30
2022-11-23T04:16:07.351Z,7.30
2022-11-23T04:18:53.175Z,7.20
2022-11-23T04:21:39.324Z,7.80
2022-11-23T04:24:25.463Z,7.10
2022-11-23T04:27:13.452Z,7.10
2022-11-23T04:30:01.400Z,7.20
2022-11-23T04:32:48.078Z,7.10
2022-11-23T04:35:34.358Z,7.10
2022-11-23T04:38:19.838Z,7.10
2022-11-23T04:41:06.482Z,7.10
2022-11-23T04:43:52.001Z,7.10
2022-11-23T04:46:39.024Z,7.10
2022-11-23T04:49:29.091Z,7.20
2022-11-23T04:52:15.528Z,7.60
2022-11-23T04:55:06.851Z,7.20
2022-11-23T04:57:55.805Z,7.20
2022-11-23T05:00:43.885Z,7.20
2022-11-23T05:03:34.933Z,7.20
2022-11-23T05:06:22.999Z,7.10
2022-11-23T05:09:08.474Z,6.90
2022-11-23T05:12:04.158Z,7.00
2022-11-23T05:14:50.635Z,7.30
2022-11-23T05:17:43.892Z,7.30
2022-11-23T05:20:36.665Z,7.20
2022-11-23T05:23:22.536Z,7.20
2022-11-23T05:26:11.200Z,7.10
2022-11-23T05:28:56.973Z,7.10
2022-11-23T05:31:42.773Z,6.90
2022-11-23T05:34:28.855Z,6.90
2022-11-23T05:37:14.382Z,7.00
2022-11-23T05:40:11.119Z,8.40
2022-11-23T05:42:58.436Z,7.00
2022-11-23T05:45:44.759Z,6.90
2022-11-23T05:48:32.253Z,6.90
2022-11-23T05:51:17.854Z,6.80
2022-11-23T05:54:06.460Z,6.70
2022-11-23T05:56:57.571Z,6.70
2022-11-23T05:59:53.175Z,7.00
2022-11-23T06:02:44.047Z,6.80
2022-11-23T06:05:30.616Z,6.70
2022-11-23T06:08:16.396Z,6.60
2022-11-23T06:11:03.797Z,6.80
2022-11-23T06:13:50.599Z,6.70
2022-11-23T06:16:37.121Z,6.70
2022-11-23T06:19:35.509Z,6.50
2022-11-23T06:22:22.514Z,6.60
2022-11-23T06:25:17.026Z,6.70
2022-11-23T06:28:14.555Z,6.70
2022-11-23T06:31:06.707Z,6.70
2022-11-23T06:33:53.875Z,6.60
2022-11-23T06:36:40.273Z,6.60
2022-11-23T06:39:26.701Z,6.50
2022-11-23T06:45:19.153Z,6.20
2022-11-23T06:48:07.038Z,6.30
2022-11-23T06:51:00.276Z,6.40
2022-11-23T06:53:46.799Z,6.40
2022-11-23T06:56:33.531Z,6.40
2022-11-23T06:59:18.928Z,7.20
2022-11-23T07:02:05.069Z,6.40
2022-11-23T07:04:54.461Z,6.30
2022-11-23T07:07:40.299Z,6.30
2022-11-23T07:10:35.914Z,6.20
2022-11-23T07:13:23.046Z,6.30
2022-11-23T07:16:08.704Z,6.40
2022-11-23T07:18:57.658Z,6.80
2022-11-23T07:21:44.794Z,6.60
2022-11-23T07:24:36.279Z,6.70
2022-11-23T07:27:26.038Z,7.00
2022-11-23T07:30:11.917Z,8.00
2022-11-23T07:33:02.447Z,8.50
2022-11-23T07:35:49.396Z,8.80
2022-11-23T07:38:34.959Z,9.70
2022-11-23T07:41:21.395Z,10.00
2022-11-23T07:44:18.243Z,9.30
2022-11-23T07:47:04.648Z,8.70
2022-11-23T07:49:50.304Z,8.50
2022-11-23T07:52:40.240Z,8.30
2022-11-23T07:55:26.114Z,8.10
2022-11-23T07:58:16.552Z,8.20
2022-11-23T08:01:03.487Z,8.70
2022-11-23T08:03:49.985Z,9.60
2022-11-23T08:06:36.226Z,10.90
2022-11-23T08:09:25.411Z,12.00
2022-11-23T08:12:16.977Z,12.80
2022-11-23T08:15:03.118Z,11.60
2022-11-23T08:17:48.576Z,11.30
2022-11-23T08:20:34.164Z,10.20
2022-11-23T08:23:20.375Z,10.10
2022-11-23T08:26:13.183Z,9.70
2022-11-23T08:28:59.514Z,9.90
2022-11-23T08:31:45.787Z,10.60
2022-11-23T08:34:31.723Z,11.70
2022-11-23T08:37:17.569Z,11.70
2022-11-23T08:40:03.014Z,10.00
2022-11-23T08:42:48.292Z,7.80
2022-11-23T08:45:34.245Z,7.10
2022-11-23T08:48:20.139Z,7.50
2022-11-23T08:51:05.976Z,7.70
2022-11-23T08:53:51.684Z,8.40
2022-11-23T08:56:37.419Z,8.50
2022-11-23T08:59:23.320Z,8.00
2022-11-23T09:02:12.668Z,8.20
2022-11-23T09:04:58.446Z,9.40
2022-11-23T09:07:44.098Z,11.20
2022-11-23T09:10:29.454Z,13.40
2022-11-23T09:13:14.836Z,16.20
2022-11-23T09:16:01.302Z,17.50
2022-11-23T09:18:49.616Z,17.80
2022-11-23T09:21:36.206Z,17.60
2022-11-23T09:24:22.814Z,18.70
2022-11-23T09:27:08.801Z,19.10
2022-11-23T09:29:54.372Z,19.50
2022-11-23T09:32:40.728Z,18.90
2022-11-23T09:35:26.281Z,17.60
2022-11-23T09:38:12.137Z,16.60
2022-11-23T09:41:19.610Z,16.30
2022-11-23T09:44:08.231Z,17.50
2022-11-23T09:47:12.610Z,18.10
2022-11-23T09:50:07.859Z,19.40
2022-11-23T09:52:54.300Z,20.20
2022-11-23T09:55:44.272Z,19.20
2022-11-23T09:58:40.076Z,17.60
2022-11-23T10:01:30.799Z,15.60
2022-11-23T10:04:19.777Z,14.30
2022-11-23T10:07:17.557Z,12.70
2022-11-23T10:10:33.415Z,11.80
2022-11-23T10:13:50.065Z,11.40
2022-11-23T10:16:42.195Z,11.30
2022-11-23T10:19:57.543Z,10.90
2022-11-23T10:22:58.840Z,11.00
2022-11-23T10:25:49.972Z,11.10
2022-11-23T10:28:37.857Z,10.90
2022-11-23T10:31:26.252Z,11.30
2022-11-23T10:34:40.433Z,11.00
2022-11-23T10:37:26.525Z,11.40
2022-11-23T10:40:30.570Z,10.60
2022-11-23T10:43:22.937Z,10.90
2022-11-23T10:46:32.039Z,10.80
2022-11-23T10:49:23.596Z,10.70
2022-11-23T10:52:30.572Z,10.90
2022-11-23T10:55:24.971Z,10.90
2022-11-23T10:58:26.307Z,10.90
2022-11-23T11:01:27.041Z,11.20
2022-11-23T11:04:24.164Z,11.30
2022-11-23T11:07:21.081Z,11.40
2022-11-23T11:10:27.271Z,11.50
2022-11-23T11:13:44.448Z,11.30
2022-11-23T11:16:38.092Z,11.10
2022-11-23T11:19:32.141Z,11.10
2022-11-23T11:22:36.562Z,11.10
2022-11-23T11:25:32.376Z,11.20
2022-11-23T11:28:40.734Z,11.40
2022-11-23T11:31:38.690Z,11.50
2022-11-23T11:34:38.608Z,11.30
2022-11-23T11:37:41.755Z,11.50
2022-11-23T11:40:47.008Z,11.70
2022-11-23T11:43:48.569Z,11.70
2022-11-23T11:46:40.476Z,11.50
2022-11-23T11:49:35.725Z,11.70
2022-11-23T11:52:38.059Z,11.90
2022-11-23T11:55:47.204Z,12.00
2022-11-23T11:58:35.263Z,12.00
2022-11-23T12:01:37.001Z,12.20
2022-11-23T12:04:43.525Z,11.60
2022-11-23T12:07:35.209Z,11.80
2022-11-23T12:10:56.475Z,12.00
2022-11-23T12:13:47.059Z,12.20
2022-11-23T12:16:44.855Z,12.20
2022-11-23T12:19:45.188Z,12.10
2022-11-23T12:22:46.056Z,11.90
2022-11-23T12:25:52.845Z,12.20
2022-11-23T12:29:00.584Z,12.20
2022-11-23T12:32:20.663Z,12.00
2022-11-23T12:35:17.560Z,12.00
2022-11-23T12:38:24.072Z,12.20
2022-11-23T12:41:17.646Z,12.30
2022-11-23T12:44:52.166Z,12.10
2022-11-23T12:48:16.873Z,12.00
2022-11-23T12:51:03.023Z,12.30
2022-11-23T12:54:25.162Z,12.00
2022-11-23T12:57:15.267Z,11.90
2022-11-23T13:00:12.914Z,12.30
2022-11-23T13:02:58.817Z,12.50
2022-11-23T13:06:25.017Z,12.50
2022-11-23T13:09:29.195Z,12.60
2022-11-23T13:12:41.736Z,12.50
2022-11-23T13:15:44.385Z,12.60
2022-11-23T13:18:39.182Z,12.50
2022-11-23T13:21:27.237Z,12.60
2022-11-23T13:24:37.776Z,12.70
2022-11-23T13:27:32.359Z,12.70
2022-11-23T13:30:45.565Z,12.60
2022-11-23T13:33:38.535Z,12.60
2022-11-23T13:39:57.434Z,12.30
2022-11-23T13:42:43.404Z,11.30
2022-11-23T13:45:34.382Z,12.50
2022-11-23T13:48:54.817Z,12.50
2022-11-23T13:51:35.402Z,12.50
2022-11-23T13:54:31.661Z,12.50
2022-11-23T13:57:18.151Z,12.70
2022-11-23T14:00:42.032Z,12.70
2022-11-23T14:03:44.154Z,12.50
2022-11-23T14:06:52.518Z,12.50
2022-11-23T14:10:09.838Z,12.40
2022-11-23T14:13:05.675Z,12.00
2022-11-23T14:16:01.643Z,12.30
2022-11-23T14:19:05.138Z,12.20
2022-11-23T14:22:22.234Z,12.20
2022-11-23T14:25:37.050Z,12.50
2022-11-23T14:28:37.861Z,12.40
2022-11-23T14:31:36.455Z,12.20
2022-11-23T14:34:50.549Z,12.40
2022-11-23T14:37:59.293Z,12.60
2022-11-23T14:40:54.157Z,12.40
2022-11-23T14:43:42.876Z,12.30
2022-11-23T14:46:28.420Z,12.20
2022-11-23T14:49:15.675Z,12.20
2022-11-23T14:52:03.302Z,12.10
2022-11-23T14:54:51.737Z,12.10
2022-11-23T14:57:46.137Z,12.00
2022-11-23T15:00:41.868Z,12.10
2022-11-23T15:06:45.769Z,12.40
2022-11-23T15:09:51.139Z,12.50
2022-11-23T15:12:48.855Z,12.10
2022-11-23T15:15:38.190Z,11.90
2022-11-23T15:18:28.364Z,12.00
2022-11-23T15:21:27.911Z,11.90
2022-11-23T15:24:28.356Z,12.70
2022-11-23T15:27:17.057Z,11.90
2022-11-23T15:30:03.107Z,11.80
2022-11-23T15:33:00.389Z,11.90
2022-11-23T15:35:47.806Z,12.10
2022-11-23T15:38:33.823Z,12.10
2022-11-23T15:41:19.584Z,11.70
2022-11-23T15:44:33.156Z,12.10
2022-11-23T15:47:28.135Z,12.10
2022-11-23T15:50:14.489Z,12.10
2022-11-23T15:53:01.666Z,11.80
2022-11-23T15:55:49.991Z,11.70
2022-11-23T15:58:37.059Z,11.60
2022-11-23T16:01:23.579Z,11.60
2022-11-23T16:04:28.809Z,11.40
2022-11-23T16:07:25.811Z,11.40
2022-11-23T16:10:23.283Z,11.20
2022-11-23T16:13:45.503Z,11.40
2022-11-23T16:16:31.069Z,11.30
2022-11-23T16:19:29.177Z,11.20
2022-11-23T16:22:40.430Z,11.50
2022-11-23T16:25:34.136Z,11.50
2022-11-23T16:28:32.460Z,11.40
2022-11-23T16:31:37.729Z,11.40
2022-11-23T16:34:24.356Z,11.00
2022-11-23T16:37:10.085Z,11.40
2022-11-23T16:39:55.640Z,11.10
2022-11-23T16:42:41.740Z,10.80
2022-11-23T16:45:27.745Z,11.00
2022-11-23T16:48:25.751Z,10.60
2022-11-23T16:51:14.529Z,10.50
2022-11-23T16:54:20.333Z,10.60
2022-11-23T16:57:06.819Z,10.20
2022-11-23T16:59:53.130Z,9.80
2022-11-23T17:02:39.191Z,10.20
2022-11-23T17:05:26.384Z,10.50
2022-11-23T17:08:21.683Z,10.40
2022-11-23T17:11:21.481Z,10.30
2022-11-23T17:14:07.749Z,10.20
2022-11-23T17:16:54.700Z,10.20
2022-11-23T17:19:40.303Z,10.20
2022-11-23T17:22:26.340Z,10.20
2022-11-23T17:25:15.278Z,10.20
2022-11-23T17:28:01.736Z,10.10
2022-11-23T17:30:48.209Z,10.10
2022-11-23T17:33:33.812Z,10.00
2022-11-23T17:36:20.001Z,10.00
2022-11-23T17:39:05.867Z,9.90
2022-11-23T17:41:52.383Z,9.80
2022-11-23T17:44:39.458Z,9.80
2022-11-23T17:47:31.136Z,9.80
2022-11-23T17:50:19.360Z,9.70
2022-11-23T17:53:05.192Z,9.80
2022-11-23T17:55:51.044Z,9.90
2022-11-23T17:58:36.595Z,9.80
2022-11-23T18:01:23.863Z,9.70
2022-11-23T18:04:10.028Z,9.70
2022-11-23T18:06:56.050Z,9.60
2022-11-23T18:09:42.232Z,9.50
2022-11-23T18:12:28.527Z,9.40
2022-11-23T18:15:14.663Z,9.30
2022-11-23T18:18:04.438Z,9.20
2022-11-23T18:20:50.781Z,9.30
2022-11-23T18:23:37.753Z,9.10
2022-11-23T18:26:30.545Z,8.90
2022-11-23T18:29:17.406Z,8.80
2022-11-23T18:32:06.717Z,8.70
2022-11-23T18:34:53.146Z,8.80
2022-11-23T18:37:38.726Z,8.80
2022-11-23T18:40:26.616Z,8.90
2022-11-23T18:43:12.655Z,8.80
2022-11-23T18:45:59.132Z,8.90
2022-11-23T18:48:46.038Z,8.90
2022-11-23T18:51:31.900Z,8.90
2022-11-23T18:54:18.649Z,9.10
2022-11-23T18:57:04.823Z,8.90
2022-11-23T18:59:58.003Z,8.80
2022-11-23T19:02:44.593Z,8.90
2022-11-23T19:05:34.151Z,8.90
2022-11-23T19:08:19.989Z,8.90
2022-11-23T19:11:07.970Z,9.10
2022-11-23T19:13:56.248Z,9.10
2022-11-23T19:16:41.785Z,9.10
2022-11-23T19:19:28.244Z,8.90
2022-11-23T19:22:14.136Z,8.90
2022-11-23T19:25:00.170Z,8.90
2022-11-23T19:27:46.789Z,8.90
2022-11-23T19:30:32.700Z,9.10
2022-11-23T19:33:18.579Z,9.00
2022-11-23T19:36:08.850Z,8.90
2022-11-23T19:38:59.291Z,9.00
2022-11-23T19:41:45.617Z,9.00
2022-11-23T19:44:31.583Z,8.90
2022-11-23T19:47:22.670Z,8.80
2022-11-23T19:50:09.313Z,8.80
2022-11-23T19:53:11.811Z,8.80
2022-11-23T19:56:07.483Z,8.90
2022-11-23T19:58:55.081Z,9.00
2022-11-23T20:01:40.737Z,9.00
2022-11-23T20:04:26.478Z,9.10
2022-11-23T20:07:13.760Z,9.10
2022-11-23T20:10:00.443Z,8.90
2022-11-23T20:12:46.096Z,8.70
2022-11-23T20:15:32.936Z,8.50
2022-11-23T20:18:19.614Z,8.60
2022-11-23T20:21:14.299Z,8.70
2022-11-23T20:24:06.225Z,8.60
2022-11-23T20:26:52.488Z,8.80
2022-11-23T20:29:38.517Z,9.70
2022-11-23T20:32:24.414Z,8.60
2022-11-23T20:35:09.982Z,8.40
2022-11-23T20:37:55.558Z,8.20
2022-11-23T20:40:41.467Z,8.10
2022-11-23T20:43:30.361Z,8.10
2022-11-23T20:46:31.669Z,8.20
2022-11-23T20:49:21.912Z,8.10
2022-11-23T20:52:07.531Z,8.10
2022-11-23T20:54:52.948Z,8.20
2022-11-23T20:57:38.622Z,8.30
2022-11-23T21:00:24.742Z,8.20
2022-11-23T21:03:10.539Z,8.10
2022-11-23T21:05:56.262Z,7.70
2022-11-23T21:08:44.012Z,7.80
2022-11-23T21:11:48.203Z,8.30
2022-11-23T21:14:34.788Z,7.90
2022-11-23T21:17:21.337Z,8.00
2022-11-23T21:20:07.292Z,8.10
2022-11-23T21:22:53.157Z,8.20
2022-11-23T21:25:38.870Z,8.20
2022-11-23T21:28:24.758Z,8.20
2022-11-23T21:31:15.007Z,8.10
2022-11-23T21:34:05.292Z,8.10
2022-11-23T21:36:51.473Z,8.00
2022-11-23T21:39:37.198Z,8.00
2022-11-23T21:42:22.700Z,7.40
2022-11-23T21:45:08.715Z,7.70
2022-11-23T21:47:55.076Z,7.60
2022-11-23T21:50:40.556Z,7.70
2022-11-23T21:53:26.015Z,7.90
2022-11-23T21:56:13.946Z,7.70
2022-11-23T21:58:59.913Z,7.30
2022-11-23T22:01:45.427Z,7.60
2022-11-23T22:04:31.172Z,7.40
2022-11-23T22:07:17.326Z,7.20
2022-11-23T22:10:03.068Z,7.10
2022-11-23T22:12:48.906Z,7.60
2022-11-23T22:15:34.787Z,7.70
2022-11-23T22:18:20.346Z,8.00
2022-11-23T22:21:06.616Z,8.20
2022-11-23T22:23:52.379Z,8.30
2022-11-23T22:26:38.648Z,8.50
2022-11-23T22:29:24.175Z,8.60
2022-11-23T22:32:10.010Z,8.60
2022-11-23T22:34:55.495Z,8.50
2022-11-23T22:37:40.963Z,8.50
2022-11-23T22:40:32.646Z,8.40
2022-11-23T22:43:18.521Z,8.10
2022-11-23T22:46:05.875Z,7.70
2022-11-23T22:48:52.555Z,7.60
2022-11-23T22:51:38.150Z,7.60
2022-11-23T22:54:23.765Z,7.50
2022-11-23T22:57:09.602Z,7.40
2022-11-23T22:59:55.407Z,7.20
2022-11-23T23:02:41.627Z,7.30
2022-11-23T23:05:28.431Z,7.50
2022-11-23T23:08:13.892Z,7.80
2022-11-23T23:11:06.733Z,8.00
2022-11-23T23:13:52.799Z,8.30
2022-11-23T23:16:38.356Z,8.60
2022-11-23T23:19:24.124Z,8.30
2022-11-23T23:22:09.682Z,8.00
2022-11-23T23:24:55.466Z,8.00
2022-11-23T23:27:41.207Z,8.10
2022-11-23T23:30:27.228Z,8.00
2022-11-23T23:33:13.321Z,7.80
2022-11-23T23:36:08.042Z,7.70
2022-11-23T23:38:53.439Z,7.70
2022-11-23T23:41:39.175Z,9.00
2022-11-23T23:44:24.580Z,7.80
2022-11-23T23:47:10.692Z,7.70
2022-11-23T23:49:56.235Z,7.70
2022-11-23T23:52:42.173Z,8.20
2022-11-23T23:55:27.964Z,7.70
2022-11-23T23:58:13.342Z,7.70
